Time;durP1;ratioP1;P1;durP2;ratioP2;P2;SDS_P1;SDS_P2;PMS_P1;PMS_P2;Temp;Humidity;BMP_temperature;BMP_pressure;BME280_temperature;BME280_humidity;BME280_pressure;Samples;Min_cycle;Max_cycle;Signal;HPM_P1;HPM_P2
2021/05/12 00:01:49;;;;;;;3.97;3.08;;;;;;;10.29;90.29;95686.50;5010773;28;20395;-65
2021/05/12 00:04:15;;;;;;;5.40;3.17;;;;;;;10.31;90.33;95680.72;5008523;28;20049;-66
2021/05/12 00:06:41;;;;;;;5.10;3.78;;;;;;;10.36;90.11;95684.03;5008617;28;20065;-66
2021/05/12 00:09:08;;;;;;;4.63;3.40;;;;;;;10.43;89.95;95686.19;5009400;28;20132;-67
2021/05/12 00:11:34;;;;;;;4.15;2.90;;;;;;;10.45;89.73;95678.50;5012502;28;20050;-66
2021/05/12 00:14:00;;;;;;;4.15;3.00;;;;;;;10.46;89.42;95680.09;5014227;28;20420;-66
2021/05/12 00:16:26;;;;;;;3.15;2.47;;;;;;;10.39;89.01;95668.97;5014049;28;20120;-67
2021/05/12 00:18:52;;;;;;;3.08;2.25;;;;;;;10.38;89.10;95659.19;5014572;28;20081;-65
2021/05/12 00:21:26;;;;;;;3.88;2.50;;;;;;;10.34;89.29;95669.16;5013681;28;20056;-65
2021/05/12 00:23:59;;;;;;;3.25;2.40;;;;;;;10.30;89.53;95666.31;5014817;28;20061;-65
2021/05/12 00:26:29;;;;;;;2.43;2.03;;;;;;;10.26;89.33;95661.84;5013142;28;20149;-65
2021/05/12 00:28:55;;;;;;;3.10;2.25;;;;;;;10.24;89.41;95658.69;5014799;28;20515;-65
2021/05/12 00:31:21;;;;;;;2.92;2.10;;;;;;;10.22;89.37;95660.91;5013226;28;20045;-65
2021/05/12 00:33:47;;;;;;;3.10;2.33;;;;;;;10.22;89.86;95656.25;5014360;28;20070;-65
2021/05/12 00:36:13;;;;;;;3.45;2.38;;;;;;;10.20;89.94;95650.34;5013159;28;20042;-65
2021/05/12 00:38:39;;;;;;;2.92;2.20;;;;;;;10.20;90.00;95647.63;5013675;28;20057;-65
2021/05/12 00:41:05;;;;;;;3.38;2.20;;;;;;;10.20;90.02;95656.59;5013621;28;20100;-65
2021/05/12 00:43:32;;;;;;;3.00;2.30;;;;;;;10.15;90.11;95650.56;5013405;28;20668;-65
2021/05/12 00:45:58;;;;;;;3.67;2.10;;;;;;;10.18;90.44;95650.69;5014384;28;20058;-65
2021/05/12 00:48:24;;;;;;;2.95;2.15;;;;;;;10.22;90.30;95644.56;5012596;28;20046;-65
2021/05/12 00:50:50;;;;;;;4.75;2.00;;;;;;;10.15;89.95;95650.56;5014414;28;20132;-65
2021/05/12 00:53:16;;;;;;;3.88;1.98;;;;;;;10.14;90.01;95638.09;5012558;28;20054;-65
2021/05/12 00:55:42;;;;;;;2.72;1.60;;;;;;;10.11;89.93;95639.53;5014481;28;20466;-65
2021/05/12 00:58:08;;;;;;;2.17;1.65;;;;;;;10.08;90.24;95629.31;5012765;28;20129;-66
2021/05/12 01:00:34;;;;;;;2.78;1.88;;;;;;;10.06;90.01;95630.78;5013641;28;20084;-66
2021/05/12 01:03:02;;;;;;;2.63;1.58;;;;;;;10.09;90.24;95620.03;5013338;28;20413;-66
2021/05/12 01:05:41;;;;;;;3.08;1.60;;;;;;;10.09;90.17;95635.56;5013252;28;20042;-66
2021/05/12 01:08:07;;;;;;;3.42;1.30;;;;;;;10.11;89.77;95628.66;5012519;28;20054;-66
2021/05/12 01:10:35;;;;;;;1.95;1.60;;;;;;;10.04;90.17;95631.13;5013102;28;20045;-66
2021/05/12 01:13:02;;;;;;;5.32;1.58;;;;;;;10.03;89.99;95632.25;5013942;28;20497;-66
2021/05/12 01:15:28;;;;;;;2.45;1.13;;;;;;;10.08;90.20;95640.22;5012578;28;20049;-66
2021/05/12 01:18:08;;;;;;;1.58;1.13;;;;;;;10.00;89.78;95646.50;5013854;28;20052;-66
2021/05/12 01:20:46;;;;;;;1.58;1.10;;;;;;;9.94;89.70;95650.53;5012972;28;20045;-66
2021/05/12 01:23:13;;;;;;;3.38;1.77;;;;;;;10.03;90.26;95648.56;5011947;28;20054;-66
2021/05/12 01:25:39;;;;;;;1.75;1.10;;;;;;;10.04;89.87;95641.19;5013379;28;20107;-66
2021/05/12 01:28:05;;;;;;;2.58;1.63;;;;;;;9.94;89.68;95650.53;5012302;28;20505;-66
2021/05/12 01:30:31;;;;;;;2.03;1.30;;;;;;;9.93;89.76;95654.41;5013429;28;20050;-66
2021/05/12 01:32:59;;;;;;;1.58;1.17;;;;;;;9.93;90.14;95648.97;5012470;28;20041;-66
2021/05/12 01:35:26;;;;;;;2.17;1.33;;;;;;;9.81;89.79;95649.66;5013329;28;20046;-66
2021/05/12 01:37:53;;;;;;;1.42;1.08;;;;;;;9.87;90.23;95655.72;5012107;28;20045;-66
2021/05/12 01:40:19;;;;;;;3.15;1.42;;;;;;;9.83;89.53;95649.34;5012893;28;20046;-66
2021/05/12 01:42:45;;;;;;;2.78;1.20;;;;;;;9.79;89.75;95649.19;5012431;28;20041;-66
2021/05/12 01:45:12;;;;;;;1.83;1.30;;;;;;;9.77;90.17;95646.03;5012520;28;20404;-66
2021/05/12 01:47:38;;;;;;;1.80;1.05;;;;;;;9.79;89.63;95648.41;5012763;28;20046;-67
2021/05/12 01:50:08;;;;;;;2.63;1.50;;;;;;;9.79;90.07;95656.56;5012297;28;20075;-67
2021/05/12 01:52:37;;;;;;;1.40;1.00;;;;;;;9.89;90.17;95661.63;5013128;28;20485;-67
2021/05/12 01:55:05;;;;;;;2.83;1.58;;;;;;;9.86;89.74;95671.22;5011693;28;20050;-66
2021/05/12 01:57:31;;;;;;;2.35;1.27;;;;;;;9.78;89.36;95663.13;5013205;28;20092;-66
2021/05/12 01:59:57;;;;;;;2.00;1.15;;;;;;;9.78;89.27;95660.41;5011977;28;20064;-66
2021/05/12 02:02:23;;;;;;;1.80;1.13;;;;;;;9.78;89.60;95671.28;5012612;28;20544;-66
2021/05/12 02:04:49;;;;;;;4.72;1.05;;;;;;;9.77;89.84;95650.66;5012086;28;20048;-66
2021/05/12 02:07:15;;;;;;;1.40;1.10;;;;;;;9.67;89.41;95658.06;5011760;28;20137;-69
2021/05/12 02:09:46;;;;;;;1.20;0.90;;;;;;;9.66;89.63;95651.03;5011916;28;20045;-67
2021/05/12 02:12:13;;;;;;;1.20;1.00;;;;;;;9.62;89.83;95655.53;5011894;28;20045;-66
2021/05/12 02:14:39;;;;;;;0.98;0.90;;;;;;;9.58;89.89;95654.59;5012506;28;20049;-66
2021/05/12 02:17:05;;;;;;;1.60;1.15;;;;;;;9.63;89.93;95662.56;5011539;28;20120;-66
2021/05/12 02:19:31;;;;;;;2.50;0.90;;;;;;;9.61;90.17;95648.53;5012787;28;20072;-67
2021/05/12 02:21:57;;;;;;;1.60;0.98;;;;;;;9.61;90.39;95648.53;5011568;28;20042;-66
2021/05/12 02:24:23;;;;;;;1.42;1.00;;;;;;;9.65;89.96;95652.16;5012208;28;20081;-67
2021/05/12 02:26:49;;;;;;;0.80;0.80;;;;;;;9.60;89.93;95646.91;5011637;28;20046;-66
2021/05/12 02:29:16;;;;;;;1.95;1.40;;;;;;;9.59;89.96;95655.41;5011998;28;20073;-66
2021/05/12 02:31:42;;;;;;;1.98;1.13;;;;;;;9.57;89.98;95657.66;5011834;28;20042;-66
2021/05/12 02:34:08;;;;;;;1.50;0.98;;;;;;;9.59;90.40;95656.19;5011517;28;20057;-66
2021/05/12 02:36:34;;;;;;;1.75;0.95;;;;;;;9.59;90.52;95653.47;5011744;28;20405;-66
2021/05/12 02:39:00;;;;;;;2.63;1.15;;;;;;;9.58;90.58;95654.59;5011494;28;20058;-66
2021/05/12 02:41:26;;;;;;;1.33;0.90;;;;;;;9.62;90.80;95658.25;5011606;28;20154;-66
2021/05/12 02:43:52;;;;;;;5.47;1.08;;;;;;;9.60;90.48;95646.09;5011145;28;20048;-65
2021/05/12 02:46:19;;;;;;;5.05;1.50;;;;;;;9.55;90.45;95657.16;5011658;28;20568;-66
2021/05/12 02:48:45;;;;;;;1.50;0.80;;;;;;;9.51;90.57;95654.31;5010889;28;20563;-65
2021/05/12 02:51:11;;;;;;;1.95;0.80;;;;;;;9.53;90.62;95662.16;5011583;28;20085;-65
2021/05/12 02:53:36;;;;;;;1.05;0.90;;;;;;;9.47;90.50;95664.25;5010766;28;20107;-65
2021/05/12 02:56:03;;;;;;;2.58;1.00;;;;;;;9.43;90.75;95668.75;5011447;28;20136;-65
2021/05/12 02:58:29;;;;;;;2.25;0.80;;;;;;;9.43;90.76;95665.22;5011321;28;20049;-65
2021/05/12 03:00:55;;;;;;;1.58;0.98;;;;;;;9.46;90.79;95665.38;5011475;28;20062;-65
2021/05/12 03:03:22;;;;;;;1.55;0.90;;;;;;;9.43;90.89;95662.50;5010766;28;20100;-65
2021/05/12 03:05:48;;;;;;;1.27;0.80;;;;;;;9.46;90.72;95672.75;5010943;28;20519;-65
2021/05/12 03:08:14;;;;;;;2.38;0.90;;;;;;;9.45;90.65;95661.06;5010675;28;20064;-65
2021/05/12 03:10:40;;;;;;;0.75;0.70;;;;;;;9.51;90.79;95665.19;5010710;28;20493;-65
2021/05/12 03:13:06;;;;;;;2.72;0.82;;;;;;;9.51;90.56;95659.75;5011492;28;20560;-65
2021/05/12 03:15:34;;;;;;;1.23;0.80;;;;;;;9.52;90.49;95660.56;5010631;28;20525;-65
2021/05/12 03:18:01;;;;;;;1.50;0.90;;;;;;;9.49;90.47;95662.00;5011832;28;20042;-65
2021/05/12 03:20:29;;;;;;;0.80;0.65;;;;;;;9.47;90.47;95664.25;5010310;28;20049;-65
2021/05/12 03:22:55;;;;;;;1.37;0.97;;;;;;;9.52;90.24;95661.34;5011074;28;20049;-65
2021/05/12 03:25:22;;;;;;;1.17;0.80;;;;;;;9.52;90.40;95666.78;5010286;28;20061;-65
2021/05/12 03:27:48;;;;;;;1.20;0.82;;;;;;;9.52;90.34;95669.50;5011652;28;20072;-65
2021/05/12 03:30:16;;;;;;;1.23;0.98;;;;;;;9.51;90.52;95667.91;5011090;28;20049;-65
2021/05/12 03:32:42;;;;;;;1.70;1.08;;;;;;;9.53;90.35;95673.81;5010375;28;20057;-65
2021/05/12 03:35:10;;;;;;;2.55;0.90;;;;;;;9.55;90.36;95674.31;5010884;28;20602;-66
2021/05/12 03:37:37;;;;;;;2.15;1.05;;;;;;;9.57;90.29;95674.75;5010799;28;20504;-65
2021/05/12 03:40:05;;;;;;;1.60;1.00;;;;;;;9.64;90.40;95680.47;5010870;28;20523;-66
2021/05/12 03:42:31;;;;;;;1.02;0.70;;;;;;;9.68;90.26;95681.41;5010382;28;20050;-66
2021/05/12 03:44:57;;;;;;;2.17;0.90;;;;;;;9.59;89.91;95675.22;5010938;28;20092;-65
2021/05/12 03:47:23;;;;;;;0.90;0.73;;;;;;;9.58;90.12;95681.78;5009521;28;20072;-65
2021/05/12 03:49:49;;;;;;;2.28;0.90;;;;;;;9.60;90.05;95676.00;5010580;28;20038;-66
2021/05/12 03:52:15;;;;;;;1.30;0.90;;;;;;;9.58;90.25;95684.50;5010176;28;20072;-66
2021/05/12 03:54:42;;;;;;;1.40;1.20;;;;;;;9.57;89.70;95673.97;5010433;28;20041;-66
2021/05/12 03:57:08;;;;;;;0.93;0.70;;;;;;;9.55;90.22;95687.88;5010406;28;20057;-66
2021/05/12 03:59:34;;;;;;;1.60;1.00;;;;;;;9.56;90.36;95684.03;5010146;28;20042;-66
2021/05/12 04:02:00;;;;;;;1.08;0.82;;;;;;;9.52;90.31;95680.38;5011132;28;20578;-66
2021/05/12 04:04:26;;;;;;;1.95;1.13;;;;;;;9.57;90.65;95680.19;5009493;28;20050;-66
2021/05/12 04:06:52;;;;;;;1.52;1.15;;;;;;;9.54;90.35;95680.84;5010457;28;20124;-65
2021/05/12 04:09:18;;;;;;;1.80;0.77;;;;;;;9.54;90.15;95686.28;5009523;28;20398;-66
2021/05/12 04:11:47;;;;;;;1.88;1.00;;;;;;;9.52;90.21;95696.69;5010478;28;20045;-65
2021/05/12 04:14:13;;;;;;;0.90;0.60;;;;;;;9.50;90.02;95690.78;5009964;28;20104;-65
2021/05/12 04:16:39;;;;;;;1.98;1.05;;;;;;;9.46;90.52;95687.13;5010391;28;20132;-66
2021/05/12 04:19:05;;;;;;;1.88;0.80;;;;;;;9.38;90.43;95688.75;5010109;28;20046;-66
2021/05/12 04:21:31;;;;;;;1.15;0.93;;;;;;;9.41;90.91;95703.63;5010419;28;20050;-65
2021/05/12 04:23:57;;;;;;;1.52;0.75;;;;;;;9.39;91.13;95700.41;5010720;28;20099;-66
2021/05/12 04:26:23;;;;;;;1.50;0.80;;;;;;;9.39;90.77;95694.97;5009217;28;20049;-66
2021/05/12 04:28:50;;;;;;;1.52;1.02;;;;;;;9.40;90.68;95691.16;5010894;28;20038;-66
2021/05/12 04:31:16;;;;;;;2.38;0.90;;;;;;;9.33;90.66;95701.72;5009382;28;20045;-66
2021/05/12 04:33:42;;;;;;;1.13;0.90;;;;;;;9.28;90.96;95693.75;5010649;28;20104;-66
2021/05/12 04:36:08;;;;;;;1.27;0.80;;;;;;;9.36;91.21;95684.78;5009196;28;20457;-67
2021/05/12 04:38:34;;;;;;;1.77;1.02;;;;;;;9.38;91.11;95687.94;5009942;28;20497;-67
2021/05/12 04:41:00;;;;;;;3.08;0.70;;;;;;;9.30;90.69;95692.31;5010376;28;20049;-67
2021/05/12 04:43:26;;;;;;;1.48;0.85;;;;;;;9.27;91.19;95690.22;5009558;28;20527;-66
2021/05/12 04:45:53;;;;;;;1.75;1.15;;;;;;;9.29;90.98;95685.28;5010414;28;20391;-66
2021/05/12 04:48:19;;;;;;;4.25;1.10;;;;;;;9.29;91.13;95689.91;5008500;28;20045;-67
2021/05/12 04:50:46;;;;;;;1.35;0.75;;;;;;;9.27;91.07;95690.22;5010355;28;20548;-67
2021/05/12 04:53:12;;;;;;;3.17;1.25;;;;;;;9.24;91.17;95692.78;5008986;28;20461;-66
2021/05/12 04:55:38;;;;;;;2.17;0.88;;;;;;;9.25;91.13;95686.25;5010925;28;20046;-66
2021/05/12 04:58:04;;;;;;;1.85;0.90;;;;;;;9.25;91.66;95688.97;5009571;28;20041;-67
2021/05/12 05:00:30;;;;;;;1.65;1.05;;;;;;;9.26;91.42;95690.56;5014055;28;20672;-66
2021/05/12 05:02:57;;;;;;;2.53;0.98;;;;;;;9.27;91.13;95692.16;5013424;28;20494;-66
2021/05/12 05:05:25;;;;;;;2.90;1.40;;;;;;;9.23;91.55;95692.00;5012813;28;20041;-67
2021/05/12 05:07:51;;;;;;;1.33;0.90;;;;;;;9.24;91.55;95690.06;5013074;28;20563;-66
2021/05/12 05:10:17;;;;;;;2.45;1.10;;;;;;;9.18;91.60;95694.09;5012705;28;20083;-66
2021/05/12 05:12:43;;;;;;;1.60;1.38;;;;;;;9.25;91.91;95688.97;5013619;28;20050;-68
2021/05/12 05:15:10;;;;;;;1.92;1.30;;;;;;;9.25;91.83;95706.06;5012558;28;20444;-68
2021/05/12 05:17:36;;;;;;;1.38;0.98;;;;;;;9.28;91.78;95689.09;5013747;28;20065;-68
2021/05/12 05:20:04;;;;;;;2.45;1.10;;;;;;;9.37;91.73;95698.03;5011503;28;20053;-69
2021/05/12 05:22:30;;;;;;;1.85;1.10;;;;;;;9.36;91.57;95695.63;5013092;28;20045;-68
2021/05/12 05:24:56;;;;;;;6.82;1.20;;;;;;;9.39;91.32;95689.53;5012246;28;20081;-68
2021/05/12 05:27:23;;;;;;;2.30;1.42;;;;;;;9.40;91.67;95702.03;5012634;28;20045;-69
2021/05/12 05:29:49;;;;;;;2.83;1.30;;;;;;;9.38;91.41;95704.25;5012640;28;20050;-68
2021/05/12 05:32:15;;;;;;;2.25;1.40;;;;;;;9.35;91.58;95704.91;5012306;28;20400;-73
2021/05/12 05:34:41;;;;;;;1.52;0.85;;;;;;;9.40;91.54;95693.88;5013494;28;20049;-74
2021/05/12 05:37:08;;;;;;;2.08;1.33;;;;;;;9.43;91.69;95689.69;5011901;28;20053;-73
2021/05/12 05:39:37;;;;;;;1.77;0.90;;;;;;;9.37;91.88;95689.88;5013344;28;20050;-73
2021/05/12 05:42:04;;;;;;;2.17;1.13;;;;;;;9.44;91.72;95692.06;5012201;28;20077;-73
2021/05/12 05:44:31;;;;;;;2.03;0.93;;;;;;;9.51;91.70;95692.38;5013557;28;20038;-73
2021/05/12 05:46:56;;;;;;;1.70;1.20;;;;;;;9.52;91.62;95698.59;5011539;28;20131;-72
2021/05/12 05:49:23;;;;;;;1.50;1.10;;;;;;;9.51;91.54;95692.38;5012670;28;20520;-73
2021/05/12 05:51:49;;;;;;;2.25;1.25;;;;;;;9.52;91.59;95696.69;5012617;28;20045;-72
2021/05/12 05:54:16;;;;;;;2.22;1.20;;;;;;;9.57;91.25;95695.72;5012602;28;20136;-72
2021/05/12 05:56:42;;;;;;;1.70;0.98;;;;;;;9.59;90.94;95693.44;5013181;28;20042;-72
2021/05/12 05:59:08;;;;;;;2.85;1.90;;;;;;;9.53;91.10;95689.31;5012031;28;20057;-72
2021/05/12 06:01:34;;;;;;;1.77;1.20;;;;;;;9.50;91.29;95695.41;5013304;28;20047;-72
2021/05/12 06:04:00;;;;;;;2.50;1.60;;;;;;;9.55;91.65;95704.19;5009872;28;20050;-73
2021/05/12 06:06:26;;;;;;;3.08;1.35;;;;;;;9.56;91.41;95705.78;5012586;28;20052;-72
2021/05/12 06:08:53;;;;;;;1.90;1.50;;;;;;;9.50;91.31;95704.38;5010756;28;20045;-72
2021/05/12 06:11:20;;;;;;;1.75;1.52;;;;;;;9.53;91.62;95701.00;5006057;28;20461;-72
2021/05/12 06:13:47;;;;;;;2.00;1.15;;;;;;;9.47;91.30;95713.16;4992530;28;20701;-72
2021/05/12 06:16:13;;;;;;;2.00;1.30;;;;;;;9.53;91.96;95701.00;4992117;28;20054;-72
2021/05/12 06:18:39;;;;;;;3.30;1.10;;;;;;;9.62;91.99;95703.69;4991744;28;20073;-73
2021/05/12 06:21:05;;;;;;;1.80;1.20;;;;;;;9.70;91.74;95710.19;4997487;28;20397;-72
2021/05/12 06:23:31;;;;;;;2.50;1.20;;;;;;;9.64;91.11;95721.25;4994635;28;20051;-73
2021/05/12 06:25:58;;;;;;;1.60;1.20;;;;;;;9.64;91.27;95721.25;4991647;28;20099;-74
2021/05/12 06:28:25;;;;;;;2.53;1.20;;;;;;;9.66;91.06;95710.84;4992551;28;20150;-72
2021/05/12 06:30:51;;;;;;;2.22;1.50;;;;;;;9.58;91.32;95717.13;4991420;28;20113;-73
2021/05/12 06:33:18;;;;;;;2.17;1.27;;;;;;;9.60;91.61;95714.84;4990903;28;20046;-73
2021/05/12 06:35:44;;;;;;;1.90;1.25;;;;;;;9.64;91.86;95718.53;4992140;28;20133;-72
2021/05/12 06:38:10;;;;;;;4.32;2.25;;;;;;;9.67;91.54;95715.16;5005248;28;20056;-72
2021/05/12 06:40:38;;;;;;;1.42;1.02;;;;;;;9.71;91.33;95712.59;5009005;28;20067;-75
2021/05/12 06:43:05;;;;;;;1.42;1.17;;;;;;;9.77;91.52;95710.47;5011697;28;20074;-73
2021/05/12 06:45:32;;;;;;;1.85;1.50;;;;;;;9.76;91.38;95708.88;5011669;28;20041;-73
2021/05/12 06:47:58;;;;;;;1.35;1.25;;;;;;;9.79;90.99;95713.66;5011580;28;20069;-72
2021/05/12 06:50:25;;;;;;;1.30;1.10;;;;;;;9.83;91.00;95714.59;5011308;28;20081;-72
2021/05/12 06:52:52;;;;;;;1.90;0.82;;;;;;;9.81;91.09;95706.75;4992034;28;20034;-72
2021/05/12 06:55:18;;;;;;;1.08;0.90;;;;;;;9.93;91.27;95704.16;4992019;28;20074;-73
2021/05/12 06:57:44;;;;;;;1.92;1.10;;;;;;;10.02;91.18;95703.28;4991543;28;20494;-73
2021/05/12 07:00:11;;;;;;;1.38;1.02;;;;;;;9.94;90.94;95700.28;5006035;28;20060;-73
2021/05/12 07:02:38;;;;;;;2.70;1.15;;;;;;;10.02;91.42;95701.34;5011329;28;20057;-72
2021/05/12 07:05:05;;;;;;;2.53;1.42;;;;;;;10.08;91.44;95702.78;5011234;28;20046;-73
2021/05/12 07:07:31;;;;;;;1.80;1.17;;;;;;;10.17;91.41;95700.75;5010976;28;20042;-73
2021/05/12 07:09:57;;;;;;;1.10;1.00;;;;;;;10.18;91.16;95702.38;5011672;28;20119;-72
2021/05/12 07:12:25;;;;;;;1.33;1.20;;;;;;;10.24;91.29;95702.22;5011628;28;20456;-72
2021/05/12 07:14:51;;;;;;;2.40;1.52;;;;;;;10.27;91.40;95696.09;5010486;28;20614;-73
2021/05/12 07:17:18;;;;;;;2.10;1.60;;;;;;;10.36;91.40;95699.56;5010847;28;20080;-72
2021/05/12 07:19:44;;;;;;;3.72;1.23;;;;;;;10.36;91.47;95694.91;5011686;28;20096;-72
2021/05/12 07:22:10;;;;;;;2.20;1.52;;;;;;;10.40;91.28;95690.41;5010342;28;20050;-72
2021/05/12 07:24:36;;;;;;;1.50;1.10;;;;;;;10.43;91.26;95691.66;5010769;28;20147;-72
2021/05/12 07:27:02;;;;;;;2.55;1.48;;;;;;;10.46;91.30;95693.72;5011060;28;20049;-73
2021/05/12 07:29:29;;;;;;;3.72;1.50;;;;;;;10.44;91.60;95691.34;5010923;28;20091;-75
2021/05/12 07:31:55;;;;;;;4.03;1.58;;;;;;;10.53;91.70;95693.97;5011198;28;20112;-72
2021/05/12 07:34:21;;;;;;;2.75;1.58;;;;;;;10.56;91.37;95684.34;5009627;28;20046;-72
2021/05/12 07:36:48;;;;;;;2.30;1.80;;;;;;;10.53;90.99;95685.78;5009052;28;20203;-73
2021/05/12 07:39:14;;;;;;;4.68;1.92;;;;;;;10.60;91.29;95688.00;5009096;28;20046;-72
2021/05/12 07:41:42;;;;;;;3.05;1.48;;;;;;;10.66;91.43;95682.00;5011202;28;20072;-73
2021/05/12 07:44:08;;;;;;;1.35;1.20;;;;;;;10.68;90.86;95679.72;5011344;28;20065;-72
2021/05/12 07:46:34;;;;;;;2.15;1.63;;;;;;;10.69;91.02;95675.88;5010530;28;20092;-72
2021/05/12 07:49:00;;;;;;;3.25;2.10;;;;;;;10.72;90.86;95671.69;5011231;28;20460;-73
2021/05/12 07:51:26;;;;;;;2.00;1.77;;;;;;;10.71;90.86;95673.63;5009553;28;20121;-72
2021/05/12 07:53:53;;;;;;;2.80;1.90;;;;;;;10.78;90.93;95661.38;5011280;28;20092;-73
2021/05/12 07:56:19;;;;;;;2.38;1.75;;;;;;;10.80;90.74;95676.25;5009585;28;20560;-72
2021/05/12 07:58:46;;;;;;;1.88;1.60;;;;;;;10.83;90.47;95669.34;5010643;28;20045;-73
2021/05/12 08:01:20;;;;;;;3.00;1.70;;;;;;;10.68;90.90;95668.84;5009812;28;20042;-73
2021/05/12 08:03:46;;;;;;;3.50;2.60;;;;;;;10.85;91.26;95667.06;5010688;28;20054;-73
2021/05/12 08:06:12;;;;;;;2.58;1.85;;;;;;;10.98;90.86;95674.97;5010482;28;20202;-73
2021/05/12 08:08:38;;;;;;;2.97;2.00;;;;;;;10.96;90.29;95676.41;5009969;28;20046;-72
2021/05/12 08:11:05;;;;;;;4.38;2.78;;;;;;;10.98;90.24;95671.44;5010763;28;20132;-73
2021/05/12 08:13:31;;;;;;;4.15;1.98;;;;;;;10.90;89.14;95672.31;5009811;28;20496;-72
2021/05/12 08:15:58;;;;;;;2.47;2.00;;;;;;;10.82;89.72;95668.56;5011047;28;20092;-72
2021/05/12 08:18:24;;;;;;;2.45;1.95;;;;;;;10.93;90.64;95666.19;5010220;28;20118;-71
2021/05/12 08:20:52;;;;;;;2.47;1.92;;;;;;;10.90;90.05;95675.03;5010413;28;20072;-72
2021/05/12 08:23:18;;;;;;;2.47;1.80;;;;;;;10.88;90.15;95674.59;5010082;28;20129;-72
2021/05/12 08:25:45;;;;;;;2.60;2.15;;;;;;;10.87;89.43;95670.28;5010207;28;20118;-72
2021/05/12 08:28:12;;;;;;;2.60;2.03;;;;;;;10.90;89.50;95670.38;5010278;28;20042;-72
2021/05/12 08:30:44;;;;;;;3.03;2.40;;;;;;;10.94;90.35;95665.84;5010110;28;20519;-72
2021/05/12 08:33:10;;;;;;;3.80;2.65;;;;;;;11.00;90.47;95671.88;5013048;28;20046;-72
2021/05/12 08:35:38;;;;;;;3.80;2.28;;;;;;;11.00;89.76;95668.38;5013951;28;20405;-72
2021/05/12 08:38:04;;;;;;;3.22;2.60;;;;;;;10.99;90.17;95673.03;5014210;28;20053;-71
2021/05/12 08:40:31;;;;;;;3.17;2.30;;;;;;;10.96;89.44;95668.22;5013340;28;20524;-72
2021/05/12 08:42:58;;;;;;;3.83;2.13;;;;;;;10.94;89.73;95667.78;5014590;28;20449;-73
2021/05/12 08:45:25;;;;;;;3.88;2.38;;;;;;;10.86;89.57;95658.59;5013434;28;20041;-72
2021/05/12 08:47:54;;;;;;;4.07;2.65;;;;;;;10.94;89.82;95667.78;5014028;28;20057;-74
2021/05/12 08:50:21;;;;;;;5.25;2.63;;;;;;;11.01;90.35;95665.28;5013671;28;20046;-74
2021/05/12 08:52:47;;;;;;;3.60;2.80;;;;;;;10.96;89.69;95669.06;5013726;28;20069;-74
2021/05/12 08:55:13;;;;;;;3.53;2.40;;;;;;;11.03;89.75;95665.78;5013743;28;20050;-74
2021/05/12 08:57:39;;;;;;;3.30;2.80;;;;;;;11.07;90.14;95666.69;5013674;28;20038;-74
2021/05/12 09:00:06;;;;;;;3.83;2.20;;;;;;;11.00;89.08;95674.59;5013978;28;20448;-74
2021/05/12 09:02:33;;;;;;;2.95;2.30;;;;;;;11.02;89.61;95671.56;5013325;28;20061;-74
2021/05/12 09:04:59;;;;;;;3.40;2.60;;;;;;;11.03;89.93;95673.94;5013883;28;20052;-72
2021/05/12 09:07:25;;;;;;;2.88;2.38;;;;;;;11.04;89.25;95672.81;5011280;28;20124;-72
2021/05/12 09:09:51;;;;;;;3.65;2.35;;;;;;;11.01;88.74;95670.75;5013613;28;20084;-72
2021/05/12 09:12:17;;;;;;;4.22;2.75;;;;;;;10.92;88.82;95673.59;5013452;28;20050;-73
2021/05/12 09:14:54;;;;;;;3.97;2.63;;;;;;;10.84;88.00;95668.22;5013567;28;20050;-72
2021/05/12 09:17:30;;;;;;;4.63;2.85;;;;;;;10.87;88.80;95671.06;5013554;28;20068;-72
2021/05/12 09:19:57;;;;;;;4.70;3.10;;;;;;;10.96;89.78;95668.22;5013043;28;20559;-72
2021/05/12 09:22:23;;;;;;;5.90;3.92;;;;;;;10.89;89.71;95674.25;5013558;28;20067;-72
2021/05/12 09:25:03;;;;;;;4.00;3.17;;;;;;;10.90;89.93;95675.03;5013180;28;20448;-73
2021/05/12 09:27:29;;;;;;;5.97;3.47;;;;;;;10.80;90.23;95665.34;5013456;28;20041;-73
2021/05/12 09:29:58;;;;;;;5.63;3.85;;;;;;;10.72;90.60;95674.41;5013090;28;20065;-72
2021/05/12 09:32:24;;;;;;;8.10;3.88;;;;;;;10.81;90.65;95666.19;5012827;28;20045;-72
2021/05/12 09:35:00;;;;;;;4.85;3.33;;;;;;;10.90;90.44;95675.03;5013530;28;20041;-72
2021/05/12 09:37:29;;;;;;;3.92;3.40;;;;;;;10.92;90.01;95680.97;5012061;28;20121;-73
2021/05/12 09:39:56;;;;;;;5.40;4.05;;;;;;;10.93;89.33;95679.81;5013560;28;20515;-73
2021/05/12 09:42:24;;;;;;;4.55;3.58;;;;;;;10.95;89.52;95672.09;5012018;28;20042;-73
2021/05/12 09:45:08;;;;;;;5.53;3.58;;;;;;;10.96;89.70;95668.22;5012665;28;20512;-72
2021/05/12 09:47:34;;;;;;;6.10;3.92;;;;;;;10.89;89.61;95670.72;5012527;28;20082;-75
2021/05/12 09:50:08;;;;;;;5.90;4.30;;;;;;;10.96;89.88;95660.88;5013004;28;20124;-73
2021/05/12 09:52:34;;;;;;;6.60;4.82;;;;;;;11.03;89.96;95660.31;5013095;28;20112;-72
2021/05/12 09:55:02;;;;;;;5.57;4.28;;;;;;;11.05;89.48;95663.50;5012507;28;20136;-73
2021/05/12 09:57:28;;;;;;;6.97;5.07;;;;;;;11.08;89.81;95659.31;5012828;28;20407;-73
2021/05/12 09:59:54;;;;;;;8.20;5.13;;;;;;;11.14;89.96;95663.41;5012256;28;20041;-72
2021/05/12 10:02:20;;;;;;;7.70;5.85;;;;;;;11.19;89.96;95668.63;5012636;28;20049;-73
2021/05/12 10:04:48;;;;;;;7.22;5.38;;;;;;;11.20;89.12;95670.22;5012316;28;20045;-73
2021/05/12 10:07:17;;;;;;;7.07;5.35;;;;;;;11.12;89.27;95669.22;5010949;28;20104;-72
2021/05/12 10:09:45;;;;;;;7.50;5.65;;;;;;;11.04;88.87;95667.34;5012391;28;20111;-72
2021/05/12 10:12:13;;;;;;;7.78;6.18;;;;;;;11.06;88.58;95665.09;5011724;28;20084;-72
2021/05/12 10:14:42;;;;;;;7.03;5.55;;;;;;;11.02;88.38;95672.38;5012862;28;20050;-74
2021/05/12 10:17:10;;;;;;;8.65;6.47;;;;;;;10.99;88.92;95667.56;5011669;28;20052;-74
2021/05/12 10:19:37;;;;;;;9.65;6.22;;;;;;;10.98;88.78;95666.00;5012773;28;20054;-74
2021/05/12 10:22:04;;;;;;;10.75;6.28;;;;;;;10.98;88.95;95660.53;5011263;28;20053;-72
2021/05/12 10:24:33;;;;;;;11.10;7.57;;;;;;;10.94;88.66;95662.34;5012775;28;20041;-72
2021/05/12 10:27:03;;;;;;;15.38;7.80;;;;;;;10.88;89.92;95661.75;5011373;28;20476;-72
2021/05/12 10:29:31;;;;;;;12.07;7.43;;;;;;;10.93;89.57;95661.53;5012103;28;20050;-72
2021/05/12 10:31:57;;;;;;;9.82;7.20;;;;;;;10.95;89.59;95662.00;5011913;28;20049;-72
2021/05/12 10:34:38;;;;;;;10.40;7.60;;;;;;;11.01;89.62;95669.94;5011440;28;20041;-73
2021/05/12 10:37:23;;;;;;;12.30;7.18;;;;;;;10.97;89.51;95669.84;5009246;28;20046;-74
2021/05/12 10:39:58;;;;;;;9.73;7.30;;;;;;;10.98;89.29;95674.16;5011327;28;20045;-72
2021/05/12 10:45:57;;;;;;;9.48;7.15;;;;;;;10.93;89.38;95669.72;5011440;28;20477;-73
2021/05/12 10:48:29;;;;;;;10.32;7.13;;;;;;;10.89;89.78;95662.56;5011198;28;20064;-71
2021/05/12 10:50:55;;;;;;;12.93;7.43;;;;;;;10.88;89.68;95667.22;5012279;28;20057;-72
2021/05/12 10:53:22;;;;;;;12.38;8.43;;;;;;;10.88;89.75;95661.75;5010932;28;20058;-74
2021/05/12 10:56:07;;;;;;;10.98;8.27;;;;;;;10.96;90.20;95668.22;5011221;28;20523;-72
2021/05/12 10:58:47;;;;;;;12.38;8.27;;;;;;;10.96;90.05;95668.22;5011518;28;20038;-72
2021/05/12 11:01:14;;;;;;;12.10;8.32;;;;;;;10.92;89.66;95670.06;5011341;28;20045;-71
2021/05/12 11:04:05;;;;;;;9.15;7.43;;;;;;;10.87;89.87;95664.81;5011577;28;20053;-72
2021/05/12 11:07:02;;;;;;;10.93;8.00;;;;;;;10.87;89.95;95670.28;4996181;28;20045;-72
2021/05/12 11:09:53;;;;;;;11.70;8.88;;;;;;;10.85;90.11;95667.06;5001370;28;20668;-72
2021/05/12 11:12:38;;;;;;;14.25;9.38;;;;;;;10.90;90.46;95664.13;5011233;28;20077;-72
2021/05/12 11:15:09;;;;;;;13.15;9.68;;;;;;;10.98;90.81;95663.25;5010470;28;20132;-72
2021/05/12 11:17:50;;;;;;;16.42;9.85;;;;;;;11.03;90.28;95667.72;5012201;28;20045;-72
2021/05/12 11:20:20;;;;;;;13.48;10.00;;;;;;;10.97;89.66;95656.22;5010379;28;20050;-73
2021/05/12 11:22:47;;;;;;;14.15;10.13;;;;;;;10.99;90.09;95656.69;5011604;28;20115;-72
2021/05/12 11:25:18;;;;;;;13.98;9.70;;;;;;;11.02;90.19;95661.47;5010399;28;20042;-72
2021/05/12 11:28:45;;;;;;;14.68;9.77;;;;;;;11.07;90.07;95658.53;5011232;28;20533;-73
2021/05/12 11:34:08;;;;;;;14.32;9.05;;;;;;;11.00;89.24;95663.72;5010169;28;20056;-72
2021/05/12 11:36:37;;;;;;;16.40;10.05;;;;;;;11.02;89.60;95661.47;5009951;28;20064;-72
2021/05/12 11:39:04;;;;;;;13.65;9.35;;;;;;;10.92;88.59;95661.91;4997001;28;20133;-72
2021/05/12 11:41:30;;;;;;;13.50;10.05;;;;;;;10.87;89.24;95654.72;5010657;28;20049;-74
2021/05/12 11:44:00;;;;;;;14.23;10.50;;;;;;;10.88;89.51;95660.97;5011264;28;20120;-72
2021/05/12 11:46:29;;;;;;;16.67;11.43;;;;;;;10.89;89.76;95663.34;5010152;28;20042;-72